createdAt,value
2019-04-22T00:00:36.514Z,66.7
2019-04-22T00:01:34.646Z,66.7
2019-04-22T00:02:41.018Z,66.6
2019-04-22T00:03:43.449Z,66.6
2019-04-22T00:04:52.532Z,66.3
2019-04-22T00:06:01.110Z,66.0
2019-04-22T00:07:03.283Z,66.2
2019-04-22T00:08:08.548Z,65.6
2019-04-22T00:09:12.514Z,65.8
2019-04-22T00:10:16.195Z,66.2
2019-04-22T00:11:11.026Z,66.4
2019-04-22T00:12:13.825Z,66.5
2019-04-22T00:13:23.744Z,67.6
2019-04-22T00:14:11.863Z,69.9
2019-04-22T00:15:09.783Z,68.3
2019-04-22T00:16:24.650Z,70.2
2019-04-22T00:17:26.294Z,69.8
2019-04-22T00:18:19.903Z,70.2
2019-04-22T00:20:22.755Z,69.1
2019-04-22T00:21:26.288Z,69.0
2019-04-22T00:22:29.156Z,68.0
2019-04-22T00:23:24.501Z,69.2
2019-04-22T00:24:30.720Z,69.8
2019-04-22T00:25:34.709Z,69.2
2019-04-22T00:26:37.546Z,67.8
2019-04-22T00:28:39.350Z,69.0
2019-04-22T00:29:50.192Z,67.7
2019-04-22T00:30:34.241Z,70.0
2019-04-22T00:31:40.549Z,72.0
2019-04-22T00:32:36.882Z,71.0
2019-04-22T00:33:39.389Z,69.6
2019-04-22T00:34:44.004Z,68.9
2019-04-22T00:35:41.386Z,69.9
2019-04-22T00:36:42.078Z,71.2
2019-04-22T00:37:54.834Z,71.1
2019-04-22T00:38:53.708Z,69.0
2019-04-22T00:39:55.005Z,68.4
2019-04-22T00:40:56.475Z,69.1
2019-04-22T00:41:58.240Z,69.6
2019-04-22T00:42:53.494Z,70.2
2019-04-22T00:44:02.585Z,70.5
2019-04-22T00:45:00.672Z,72.0
2019-04-22T00:45:56.280Z,72.7
2019-04-22T00:47:07.481Z,71.8
2019-04-22T00:48:09.279Z,72.0
2019-04-22T00:49:55.431Z,71.2
2019-04-22T00:52:09.304Z,73.2
2019-04-22T00:53:17.422Z,73.3
2019-04-22T00:54:06.011Z,72.9
2019-04-22T00:55:12.235Z,71.6
2019-04-22T00:57:15.433Z,72.4
2019-04-22T00:58:22.755Z,72.3
2019-04-22T00:59:17.238Z,73.2
2019-04-22T01:00:18.282Z,73.3
2019-04-22T01:01:26.570Z,73.4
2019-04-22T01:02:27.759Z,72.1
2019-04-22T01:03:26.113Z,73.7
2019-04-22T01:04:35.089Z,75.0
2019-04-22T01:05:27.877Z,74.6
2019-04-22T01:06:25.805Z,75.9
2019-04-22T01:07:30.871Z,75.5
2019-04-22T01:08:40.353Z,74.3
2019-04-22T01:09:34.848Z,74.4
2019-04-22T01:10:40.056Z,74.6
2019-04-22T01:11:34.965Z,77.2
2019-04-22T01:12:39.896Z,76.1
2019-04-22T01:13:42.470Z,74.3
2019-04-22T01:14:41.341Z,72.5
2019-04-22T01:15:40.438Z,74.1
2019-04-22T01:16:45.002Z,74.2
2019-04-22T01:17:45.339Z,74.8
2019-04-22T01:18:46.238Z,75.4
2019-04-22T01:19:50.986Z,75.8
2019-04-22T01:21:07.250Z,77.1
2019-04-22T01:22:06.700Z,77.5
2019-04-22T01:22:47.689Z,77.4
2019-04-22T01:23:52.099Z,76.9
2019-04-22T01:24:52.789Z,75.9
2019-04-22T01:25:54.963Z,77.1
2019-04-22T01:26:51.697Z,78.9
2019-04-22T01:27:49.031Z,79.4
2019-04-22T01:28:50.276Z,78.3
2019-04-22T01:29:50.781Z,76.7
2019-04-22T01:30:49.018Z,78.2
2019-04-22T01:31:43.852Z,76.4
2019-04-22T01:32:45.683Z,76.8
2019-04-22T01:33:58.629Z,78.3
2019-04-22T01:35:00.650Z,78.3
2019-04-22T01:36:10.598Z,78.7
2019-04-22T01:37:08.669Z,78.7
2019-04-22T01:38:07.823Z,79.5
2019-04-22T01:39:16.388Z,80.7
2019-04-22T01:40:17.749Z,80.0
2019-04-22T01:41:25.309Z,77.5
2019-04-22T01:42:18.676Z,79.7
2019-04-22T01:43:26.890Z,82.0
2019-04-22T01:45:29.507Z,83.4
2019-04-22T01:46:31.462Z,83.7
2019-04-22T01:47:33.085Z,84.2
2019-04-22T01:48:36.580Z,84.4
2019-04-22T01:50:31.740Z,84.1
2019-04-22T01:51:45.526Z,84.2
2019-04-22T01:52:39.892Z,84.9
2019-04-22T01:53:43.296Z,85.4
2019-04-22T01:54:40.274Z,85.4
2019-04-22T01:55:38.592Z,85.8
2019-04-22T01:56:44.919Z,85.4
2019-04-22T01:57:44.460Z,86.3
2019-04-22T01:58:38.089Z,86.7
2019-04-22T01:59:37.066Z,86.7
2019-04-22T02:00:51.041Z,87.1
2019-04-22T02:01:49.944Z,86.9
2019-04-22T02:02:49.234Z,87.0
2019-04-22T02:03:56.112Z,88.3
2019-04-22T02:04:51.464Z,87.0
2019-04-22T02:05:50.570Z,88.3
2019-04-22T02:06:59.176Z,88.0
2019-04-22T02:08:02.394Z,88.2
2019-04-22T02:09:00.685Z,85.2
2019-04-22T02:09:55.549Z,84.7
2019-04-22T02:11:00.768Z,86.5
2019-04-22T02:13:02.025Z,88.5
2019-04-22T02:14:09.195Z,85.5
2019-04-22T02:15:06.569Z,85.1
2019-04-22T02:16:12.554Z,86.5
2019-04-22T02:17:10.815Z,87.8
2019-04-22T02:18:18.306Z,88.6
2019-04-22T02:19:20.759Z,89.3
2019-04-22T02:20:13.421Z,88.7
2019-04-22T02:21:13.761Z,88.4
2019-04-22T02:22:24.960Z,88.0
2019-04-22T02:23:40.899Z,89.5
2019-04-22T02:24:20.125Z,88.7
2019-04-22T02:25:24.582Z,88.4
2019-04-22T02:26:29.911Z,89.3
2019-04-22T02:27:29.236Z,89.1
2019-04-22T02:28:34.216Z,88.5
2019-04-22T02:29:29.908Z,89.0
2019-04-22T02:30:41.075Z,88.9
2019-04-22T02:31:36.030Z,90.1
2019-04-22T02:34:40.195Z,89.4
2019-04-22T02:36:01.160Z,90.0
2019-04-22T02:36:43.057Z,90.6
2019-04-22T02:37:54.845Z,89.6
2019-04-22T02:38:59.046Z,90.7
2019-04-22T02:39:41.061Z,91.2
2019-04-22T02:41:08.732Z,92.0
2019-04-22T02:42:03.130Z,91.8
2019-04-22T02:42:51.671Z,91.4
2019-04-22T02:44:53.667Z,91.1
2019-04-22T02:46:13.425Z,91.6
2019-04-22T02:48:03.881Z,92.6
2019-04-22T02:49:11.826Z,92.3
2019-04-22T02:50:01.828Z,93.1
2019-04-22T02:51:59.931Z,92.3
2019-04-22T02:53:05.440Z,93.1
2019-04-22T02:55:11.522Z,93.6
2019-04-22T02:56:25.061Z,93.8
2019-04-22T02:58:12.580Z,95.4
2019-04-22T03:00:27.330Z,95.1
2019-04-22T03:01:25.032Z,95.1
2019-04-22T03:02:19.041Z,95.3
2019-04-22T03:03:31.307Z,95.7
2019-04-22T03:04:35.632Z,96.7
2019-04-22T03:05:27.685Z,96.5
2019-04-22T03:06:33.450Z,97.5
2019-04-22T03:07:29.373Z,96.1
2019-04-22T03:08:30.293Z,96.9
2019-04-22T03:09:35.093Z,97.1
2019-04-22T03:10:41.876Z,97.7
2019-04-22T03:11:34.114Z,97.8
2019-04-22T03:12:28.788Z,97.6
2019-04-22T03:13:47.379Z,97.1
2019-04-22T03:14:37.966Z,97.1
2019-04-22T03:15:48.371Z,96.5
2019-04-22T03:16:41.065Z,97.2
2019-04-22T03:17:41.343Z,97.1
2019-04-22T03:18:50.706Z,96.9
2019-04-22T03:19:50.473Z,97.2
2019-04-22T03:20:53.426Z,96.4
2019-04-22T03:21:50.208Z,97.6
2019-04-22T03:22:47.410Z,97.8
2019-04-22T03:25:05.492Z,98.4
2019-04-22T03:27:48.384Z,98.4
2019-04-22T03:30:26.198Z,98.2
2019-04-22T03:31:26.193Z,99.3
2019-04-22T03:32:40.332Z,99.0
2019-04-22T03:33:11.089Z,99.2
2019-04-22T03:36:29.577Z,99.4
2019-04-22T03:38:37.405Z,100.0
2019-04-22T03:39:31.972Z,100.0
2019-04-22T03:43:28.159Z,100.0
2019-04-22T03:44:35.849Z,100.0
2019-04-22T03:46:21.707Z,100.0
2019-04-22T03:47:29.981Z,100.0
2019-04-22T03:48:46.754Z,100.0
2019-04-22T03:50:25.246Z,100.0
2019-04-22T03:51:38.359Z,100.0
2019-04-22T03:52:27.027Z,100.0
2019-04-22T03:53:59.706Z,100.0
2019-04-22T03:55:29.467Z,100.0
2019-04-22T03:57:15.664Z,100.0
2019-04-22T03:58:38.980Z,100.0
2019-04-22T03:59:43.973Z,100.0
2019-04-22T04:00:55.333Z,100.0
2019-04-22T04:03:57.854Z,100.0
2019-04-22T04:04:45.604Z,100.0
2019-04-22T04:07:07.702Z,100.0
2019-04-22T04:07:52.018Z,100.0
2019-04-22T04:08:51.296Z,100.0
2019-04-22T04:10:01.440Z,100.0
2019-04-22T04:11:59.222Z,100.0
2019-04-22T04:13:02.919Z,100.0
2019-04-22T04:14:12.346Z,100.0
2019-04-22T04:15:13.921Z,100.0
2019-04-22T04:15:55.765Z,100.0
2019-04-22T04:17:09.661Z,100.0
2019-04-22T04:20:24.355Z,100.0
2019-04-22T04:21:22.783Z,100.0
2019-04-22T04:22:22.203Z,100.0
2019-04-22T04:23:19.908Z,100.0
2019-04-22T04:25:27.299Z,100.0
2019-04-22T04:26:26.471Z,100.0
2019-04-22T04:29:36.248Z,100.0
2019-04-22T04:31:33.101Z,100.0
2019-04-22T04:32:38.842Z,100.0
2019-04-22T04:33:28.984Z,100.0
2019-04-22T04:34:56.173Z,100.0
2019-04-22T04:36:35.414Z,100.0
2019-04-22T04:38:43.018Z,100.0
2019-04-22T04:39:44.016Z,100.0
2019-04-22T04:40:39.970Z,100.0
2019-04-22T04:41:42.424Z,100.0
2019-04-22T04:42:56.612Z,100.0
2019-04-22T04:43:59.607Z,100.0
2019-04-22T04:44:58.862Z,100.0
2019-04-22T04:46:49.735Z,100.0
2019-04-22T04:49:07.603Z,100.0
2019-04-22T04:51:55.653Z,100.0
2019-04-22T04:53:12.842Z,100.0
2019-04-22T04:54:10.384Z,100.0
2019-04-22T04:56:02.065Z,100.0
2019-04-22T04:57:00.884Z,100.0
2019-04-22T04:58:13.514Z,100.0
2019-04-22T04:59:19.505Z,100.0
2019-04-22T05:00:32.611Z,100.0
2019-04-22T05:01:10.894Z,100.0
2019-04-22T05:02:09.519Z,100.0
2019-04-22T05:03:13.606Z,100.0
2019-04-22T05:04:14.302Z,100.0
2019-04-22T05:05:16.802Z,100.0
2019-04-22T05:06:21.629Z,100.0
2019-04-22T05:07:18.324Z,100.0
2019-04-22T05:08:35.346Z,100.0
2019-04-22T05:09:26.180Z,100.0
2019-04-22T05:11:24.886Z,100.0
2019-04-22T05:13:29.443Z,100.0
2019-04-22T05:15:27.699Z,100.0
2019-04-22T05:16:32.484Z,100.0
2019-04-22T05:17:45.535Z,100.0
2019-04-22T05:18:37.730Z,100.0
2019-04-22T05:19:31.939Z,100.0
2019-04-22T05:20:48.722Z,100.0
2019-04-22T05:22:34.143Z,100.0
2019-04-22T05:23:37.437Z,100.0
2019-04-22T05:24:40.517Z,100.0
2019-04-22T05:25:32.338Z,100.0
2019-04-22T05:26:44.808Z,100.0
2019-04-22T05:27:39.750Z,100.0
2019-04-22T05:28:42.250Z,100.0
2019-04-22T05:30:00.171Z,100.0
2019-04-22T05:30:39.559Z,100.0
2019-04-22T05:31:52.222Z,100.0
2019-04-22T05:33:48.338Z,100.0
2019-04-22T05:34:48.197Z,100.0
2019-04-22T05:35:53.543Z,100.0
2019-04-22T05:36:52.758Z,97.8
2019-04-22T05:37:58.037Z,98.1
2019-04-22T05:39:06.096Z,96.7
2019-04-22T05:40:06.571Z,96.6
2019-04-22T05:41:00.605Z,96.8
2019-04-22T05:42:03.143Z,97.2
2019-04-22T05:43:02.241Z,96.6
2019-04-22T05:44:06.298Z,97.1
2019-04-22T05:45:08.910Z,97.5
2019-04-22T05:46:05.722Z,95.1
2019-04-22T05:47:08.103Z,92.6
2019-04-22T05:48:04.153Z,90.9
2019-04-22T05:49:15.007Z,90.1
2019-04-22T05:50:10.347Z,90.8
2019-04-22T05:51:14.756Z,92.9
2019-04-22T05:52:17.264Z,94.4
2019-04-22T05:53:16.597Z,91.9
2019-04-22T05:55:28.511Z,90.7
2019-04-22T05:56:28.063Z,89.9
2019-04-22T05:57:17.947Z,89.3
2019-04-22T05:58:22.539Z,86.2
2019-04-22T05:59:28.990Z,86.8
2019-04-22T06:00:30.920Z,85.5
2019-04-22T06:02:40.061Z,83.5
2019-04-22T06:03:32.432Z,82.7
2019-04-22T06:04:31.016Z,86.2
2019-04-22T06:06:36.720Z,87.5
2019-04-22T06:07:32.354Z,85.4
2019-04-22T06:08:42.119Z,82.6
2019-04-22T06:09:32.674Z,79.8
2019-04-22T06:11:34.059Z,77.1
2019-04-22T06:12:32.632Z,77.4
2019-04-22T06:14:44.594Z,76.5
2019-04-22T06:15:44.121Z,74.5
2019-04-22T06:17:54.776Z,74.1
2019-04-22T06:18:54.905Z,72.5
2019-04-22T06:19:50.511Z,71.8
2019-04-22T06:22:00.821Z,70.1
2019-04-22T06:22:59.627Z,69.1
2019-04-22T06:24:04.959Z,69.1
2019-04-22T06:25:06.404Z,66.7
2019-04-22T06:27:07.974Z,59.0
2019-04-22T06:28:03.345Z,53.8
2019-04-22T06:29:09.239Z,52.5
2019-04-22T06:30:07.989Z,51.6
2019-04-22T06:31:12.280Z,51.4
2019-04-22T06:32:23.332Z,51.0
2019-04-22T06:33:15.933Z,51.0
2019-04-22T06:34:17.904Z,47.8
2019-04-22T06:35:23.594Z,45.1
2019-04-22T06:36:16.258Z,41.6
2019-04-22T06:37:17.454Z,39.1
2019-04-22T06:38:31.556Z,36.1
2019-04-22T06:39:34.392Z,32.3
2019-04-22T06:40:24.688Z,29.2
2019-04-22T06:41:29.892Z,28.6
2019-04-22T06:42:28.397Z,27.8
2019-04-22T06:43:30.127Z,26.4
2019-04-22T06:44:29.892Z,25.5
2019-04-22T06:45:30.601Z,24.7
2019-04-22T06:47:49.196Z,22.8
2019-04-22T06:48:30.081Z,22.4
2019-04-22T06:49:35.633Z,21.7
2019-04-22T06:50:44.334Z,19.7
2019-04-22T06:51:37.627Z,20.2
2019-04-22T06:52:38.291Z,20.0
2019-04-22T06:53:40.576Z,19.8
2019-04-22T06:54:44.544Z,19.7
2019-04-22T06:56:42.807Z,18.6
2019-04-22T06:57:45.022Z,18.4
2019-04-22T06:58:47.754Z,17.7
2019-04-22T06:59:55.266Z,17.5
2019-04-22T07:00:46.037Z,17.9
2019-04-22T07:01:48.633Z,17.0
2019-04-22T07:03:53.991Z,16.4
2019-04-22T07:04:56.492Z,16.8
2019-04-22T07:06:04.016Z,16.9
2019-04-22T07:07:12.224Z,17.1
2019-04-22T07:08:04.399Z,16.2
2019-04-22T07:09:25.292Z,16.0
2019-04-22T07:10:20.509Z,15.0
2019-04-22T07:11:04.526Z,16.4
2019-04-22T07:12:11.947Z,15.7
2019-04-22T07:13:11.503Z,16.0
2019-04-22T07:14:06.892Z,15.7
2019-04-22T07:15:23.193Z,15.6
2019-04-22T07:16:13.217Z,15.1
2019-04-22T07:17:15.038Z,15.6
2019-04-22T07:18:21.203Z,14.2
2019-04-22T07:19:20.566Z,15.9
2019-04-22T07:20:18.046Z,15.7
2019-04-22T07:21:19.791Z,16.2
2019-04-22T07:22:27.824Z,15.6
2019-04-22T07:25:25.945Z,14.2
2019-04-22T07:26:25.222Z,14.3
2019-04-22T07:27:27.481Z,14.0
2019-04-22T07:28:27.397Z,15.1
2019-04-22T07:29:32.580Z,14.9
2019-04-22T07:30:35.025Z,14.0
2019-04-22T07:31:37.378Z,17.0
2019-04-22T07:33:00.683Z,19.8
2019-04-22T07:33:38.050Z,20.4
2019-04-22T07:34:42.647Z,19.8
2019-04-22T07:35:46.383Z,19.8
2019-04-22T07:38:00.298Z,16.9
2019-04-22T07:38:53.086Z,16.5
2019-04-22T07:39:45.993Z,16.0
2019-04-22T07:41:51.516Z,12.8
2019-04-22T07:42:49.345Z,12.6
2019-04-22T07:44:07.451Z,12.6
2019-04-22T07:44:59.116Z,12.6
2019-04-22T07:45:53.418Z,13.3
2019-04-22T07:47:04.809Z,14.7
2019-04-22T07:48:04.703Z,15.3
2019-04-22T07:49:00.009Z,14.5
2019-04-22T07:50:05.833Z,15.1
2019-04-22T07:52:05.069Z,15.5
2019-04-22T07:53:07.699Z,17.5
2019-04-22T07:54:11.173Z,18.1
2019-04-22T07:55:07.104Z,17.8
2019-04-22T07:56:16.736Z,17.6
2019-04-22T07:57:19.906Z,18.5
2019-04-22T07:58:18.484Z,19.2
2019-04-22T07:59:18.472Z,19.9
2019-04-22T08:00:16.197Z,20.2
2019-04-22T08:01:21.698Z,18.6
2019-04-22T08:02:10.335Z,18.0
2019-04-22T08:04:34.741Z,14.5
2019-04-22T08:05:24.879Z,14.7
2019-04-22T08:06:23.590Z,13.9
2019-04-22T08:07:30.351Z,13.7
2019-04-22T08:09:37.427Z,13.8
2019-04-22T08:10:34.442Z,13.1
2019-04-22T08:11:51.174Z,13.1
2019-04-22T08:13:38.799Z,13.3
2019-04-22T08:14:41.758Z,14.8
2019-04-22T08:15:40.345Z,16.9
2019-04-22T08:16:46.621Z,17.9
2019-04-22T08:18:40.585Z,16.7
2019-04-22T08:19:43.208Z,15.5
2019-04-22T08:20:48.686Z,14.9
2019-04-22T08:21:46.239Z,13.9
2019-04-22T08:22:51.059Z,14.1
2019-04-22T08:23:51.048Z,14.3
2019-04-22T08:25:47.474Z,14.2
2019-04-22T08:26:53.183Z,14.8
2019-04-22T08:27:57.083Z,15.6
2019-04-22T08:28:57.992Z,16.7
2019-04-22T08:31:05.256Z,15.0
2019-04-22T08:31:59.134Z,13.6
2019-04-22T08:33:01.061Z,13.8
2019-04-22T08:34:12.216Z,13.6
2019-04-22T08:35:05.087Z,15.2
2019-04-22T08:38:14.954Z,15.9
2019-04-22T08:39:26.798Z,15.2
2019-04-22T08:40:26.020Z,14.1
2019-04-22T08:41:22.930Z,15.0
2019-04-22T08:42:29.454Z,15.2
2019-04-22T08:43:20.514Z,15.8
2019-04-22T08:44:17.456Z,16.7
2019-04-22T08:45:25.018Z,16.4
2019-04-22T08:46:30.167Z,15.0
2019-04-22T08:47:30.891Z,13.4
2019-04-22T08:48:23.101Z,12.9
2019-04-22T08:49:23.178Z,12.4
2019-04-22T08:50:29.092Z,11.6
2019-04-22T08:52:48.142Z,11.4
2019-04-22T08:53:34.299Z,12.3
2019-04-22T08:55:38.424Z,15.1
2019-04-22T08:57:46.982Z,15.5
2019-04-22T08:58:41.897Z,15.0
2019-04-22T08:59:44.375Z,13.1
2019-04-22T09:01:40.063Z,11.8
2019-04-22T09:02:52.138Z,11.1
2019-04-22T09:03:50.666Z,10.5
2019-04-22T09:04:48.367Z,10.6
2019-04-22T09:07:53.384Z,10.5
2019-04-22T09:08:54.119Z,10.1
2019-04-22T09:09:55.673Z,10.4
2019-04-22T09:11:04.679Z,10.4
2019-04-22T09:12:07.873Z,9.5
2019-04-22T09:13:22.500Z,10.1
2019-04-22T09:14:11.601Z,10.0
2019-04-22T09:15:10.209Z,9.8
2019-04-22T09:16:17.073Z,9.0
2019-04-22T09:17:14.851Z,8.5
2019-04-22T09:18:16.066Z,8.9
2019-04-22T09:19:16.603Z,8.4
2019-04-22T09:20:21.979Z,9.1
2019-04-22T09:22:17.224Z,10.5
2019-04-22T09:23:28.430Z,11.0
2019-04-22T09:24:23.191Z,10.8
2019-04-22T09:25:27.461Z,10.5
2019-04-22T09:26:31.047Z,11.3
2019-04-22T09:28:34.620Z,16.2
2019-04-22T09:29:37.642Z,18.4
2019-04-22T09:30:34.763Z,20.2
2019-04-22T09:31:35.929Z,21.3
2019-04-22T09:32:38.860Z,20.1
2019-04-22T09:34:39.872Z,18.8
2019-04-22T09:35:48.271Z,19.8
2019-04-22T09:36:44.001Z,18.7
2019-04-22T09:38:41.111Z,15.2
2019-04-22T09:39:51.692Z,13.8
2019-04-22T09:40:47.030Z,12.2
2019-04-22T09:42:53.274Z,11.3
2019-04-22T09:43:53.614Z,10.8
2019-04-22T09:45:53.298Z,10.4
2019-04-22T09:46:55.242Z,9.6
2019-04-22T09:48:03.169Z,10.0
2019-04-22T09:50:03.766Z,9.2
2019-04-22T09:50:58.861Z,9.1
2019-04-22T09:52:08.866Z,8.4
2019-04-22T09:53:08.717Z,9.3
2019-04-22T09:54:16.699Z,8.7
2019-04-22T09:56:10.160Z,10.0
2019-04-22T09:57:09.509Z,10.6
2019-04-22T09:58:14.819Z,9.5
2019-04-22T09:59:14.037Z,9.5
2019-04-22T10:00:17.021Z,9.9
2019-04-22T10:01:26.103Z,12.3
2019-04-22T10:02:33.914Z,12.6
2019-04-22T10:03:19.921Z,13.8
2019-04-22T10:04:18.385Z,13.4
2019-04-22T10:05:22.573Z,14.2
2019-04-22T10:07:25.997Z,17.6
2019-04-22T10:08:33.867Z,19.6
2019-04-22T10:09:42.976Z,18.8
2019-04-22T10:10:30.362Z,19.4
2019-04-22T10:11:33.982Z,19.8
2019-04-22T10:12:46.891Z,20.1
2019-04-22T10:13:34.539Z,20.2
2019-04-22T10:14:38.475Z,19.3
2019-04-22T10:15:39.735Z,18.3
2019-04-22T10:17:39.693Z,17.0
2019-04-22T10:18:42.066Z,15.7
2019-04-22T10:19:41.088Z,16.7
2019-04-22T10:20:45.872Z,15.5
2019-04-22T10:22:46.371Z,16.5
2019-04-22T10:23:45.822Z,16.7
2019-04-22T10:24:44.686Z,17.8
2019-04-22T10:25:54.105Z,18.3
2019-04-22T10:26:55.342Z,20.3
2019-04-22T10:27:55.226Z,21.7
2019-04-22T10:31:07.271Z,24.5
2019-04-22T10:33:00.793Z,24.5
2019-04-22T10:33:49.675Z,24.9
2019-04-22T10:34:44.445Z,27.0
2019-04-22T10:35:39.481Z,26.3
2019-04-22T10:36:44.036Z,26.7
2019-04-22T10:37:42.754Z,26.9
2019-04-22T10:38:44.430Z,26.7
2019-04-22T10:39:52.930Z,25.6
2019-04-22T10:40:46.801Z,26.0
2019-04-22T10:41:48.496Z,26.1
2019-04-22T10:42:49.472Z,26.5
2019-04-22T10:43:50.920Z,27.0
2019-04-22T10:44:53.691Z,25.4
2019-04-22T10:45:54.347Z,25.6
2019-04-22T10:46:55.915Z,24.3
2019-04-22T10:47:56.346Z,24.5
2019-04-22T10:48:57.963Z,24.5
2019-04-22T10:50:00.535Z,24.3
2019-04-22T10:51:01.015Z,24.9
2019-04-22T10:52:02.674Z,24.5
2019-04-22T10:53:03.557Z,25.4
2019-04-22T10:54:05.213Z,24.9
2019-04-22T10:55:07.228Z,25.5
2019-04-22T10:56:07.547Z,24.7
2019-04-22T10:57:09.125Z,24.4
2019-04-22T10:58:10.722Z,26.2
2019-04-22T10:59:11.897Z,24.6
2019-04-22T11:00:13.609Z,24.3
2019-04-22T11:01:15.715Z,23.2
2019-04-22T11:02:16.983Z,22.3
2019-04-22T11:03:18.216Z,22.3
2019-04-22T11:04:19.458Z,21.3
2019-04-22T11:05:20.394Z,21.0
2019-04-22T11:06:23.160Z,19.8
2019-04-22T11:07:31.098Z,19.4
2019-04-22T11:08:32.634Z,19.7
2019-04-22T11:09:26.957Z,19.5
2019-04-22T11:10:44.565Z,20.2
2019-04-22T11:11:41.130Z,21.7
2019-04-22T11:12:32.354Z,23.4
2019-04-22T11:13:31.775Z,24.3
2019-04-22T11:14:32.961Z,24.0
2019-04-22T11:15:34.835Z,24.1
2019-04-22T11:16:36.994Z,23.0
2019-04-22T11:17:37.671Z,23.7
2019-04-22T11:18:38.692Z,22.8
2019-04-22T11:19:41.422Z,22.8
2019-04-22T11:20:41.859Z,24.1
2019-04-22T11:21:44.569Z,23.7
2019-04-22T11:22:44.668Z,24.0
2019-04-22T11:23:46.829Z,23.5
2019-04-22T11:24:48.578Z,22.2
2019-04-22T11:25:49.918Z,22.4
2019-04-22T11:26:50.263Z,21.5
2019-04-22T11:27:51.716Z,21.3
2019-04-22T11:28:53.933Z,20.2
2019-04-22T11:29:55.375Z,20.6
2019-04-22T11:30:56.374Z,19.9
2019-04-22T11:31:57.200Z,20.1
2019-04-22T11:32:58.784Z,20.2
2019-04-22T11:34:00.751Z,20.6
2019-04-22T11:35:01.829Z,20.9
2019-04-22T11:36:03.854Z,21.0
2019-04-22T11:37:05.260Z,21.4
2019-04-22T11:38:06.705Z,21.6
2019-04-22T11:39:09.700Z,21.6
2019-04-22T11:40:21.110Z,22.3
2019-04-22T11:41:10.736Z,22.3
2019-04-22T11:42:12.339Z,22.8
2019-04-22T11:43:14.558Z,23.9
2019-04-22T11:44:15.211Z,23.9
2019-04-22T11:45:17.299Z,24.4
2019-04-22T11:46:17.809Z,25.6
2019-04-22T11:47:19.328Z,25.3
2019-04-22T11:48:21.377Z,26.1
2019-04-22T11:49:21.969Z,26.3
2019-04-22T11:50:24.231Z,27.0
2019-04-22T11:51:24.759Z,26.3
2019-04-22T11:52:26.926Z,26.6
2019-04-22T11:53:28.919Z,25.9
2019-04-22T11:54:30.264Z,27.0
2019-04-22T11:55:30.923Z,27.5
2019-04-22T11:56:32.153Z,27.3
2019-04-22T11:57:34.906Z,26.8
2019-04-22T11:59:15.097Z,25.9
2019-04-22T12:00:16.848Z,24.8
2019-04-22T12:01:19.000Z,24.0
2019-04-22T12:02:20.064Z,23.8
2019-04-22T12:03:21.041Z,23.2
2019-04-22T12:04:22.117Z,22.6
2019-04-22T12:05:23.752Z,22.9
2019-04-22T12:06:26.080Z,21.6
2019-04-22T12:07:26.687Z,20.5
2019-04-22T12:08:28.996Z,20.0
2019-04-22T12:09:29.935Z,19.4
2019-04-22T12:10:38.934Z,20.4
2019-04-22T12:11:32.427Z,20.0
2019-04-22T12:12:34.543Z,21.6
2019-04-22T12:13:35.789Z,22.6
2019-04-22T12:14:36.468Z,23.8
2019-04-22T12:15:37.867Z,24.2
2019-04-22T12:16:39.590Z,24.9
2019-04-22T12:17:42.571Z,24.1
2019-04-22T12:18:43.096Z,24.9
2019-04-22T12:19:44.209Z,26.3
2019-04-22T12:20:45.505Z,26.8
2019-04-22T12:21:46.952Z,27.1
2019-04-22T12:22:49.144Z,27.7
2019-04-22T12:23:50.819Z,28.2
2019-04-22T12:24:52.367Z,28.7
2019-04-22T12:26:01.276Z,29.4
2019-04-22T12:26:54.359Z,29.5
2019-04-22T12:27:57.003Z,30.1
2019-04-22T12:28:57.407Z,30.5
2019-04-22T12:29:58.781Z,30.1
2019-04-22T12:31:00.000Z,30.7
2019-04-22T12:32:01.569Z,30.5
2019-04-22T12:33:04.385Z,31.2
2019-04-22T12:34:05.872Z,31.6
2019-04-22T12:35:07.180Z,31.8
2019-04-22T12:36:08.611Z,31.6
2019-04-22T12:37:08.782Z,32.2
2019-04-22T12:38:11.180Z,32.4
2019-04-22T12:39:11.658Z,31.9
2019-04-22T12:40:13.085Z,32.8
2019-04-22T12:41:15.902Z,33.0
2019-04-22T12:42:17.352Z,32.9
2019-04-22T12:43:20.224Z,32.6
2019-04-22T12:44:20.125Z,33.3
2019-04-22T12:45:20.537Z,33.1
2019-04-22T12:46:21.785Z,32.9
2019-04-22T12:47:24.343Z,32.9
2019-04-22T12:48:25.448Z,32.6
2019-04-22T12:49:26.153Z,32.9
2019-04-22T12:50:32.789Z,32.4
2019-04-22T12:51:29.213Z,32.9
2019-04-22T12:52:36.967Z,33.6
2019-04-22T12:53:32.079Z,32.5
2019-04-22T12:54:35.138Z,33.0
2019-04-22T12:55:35.459Z,32.8
2019-04-22T12:56:37.586Z,33.1
2019-04-22T12:57:38.878Z,33.6
2019-04-22T12:58:41.207Z,34.4
2019-04-22T12:59:41.895Z,33.0
2019-04-22T13:00:44.847Z,32.6
2019-04-22T13:01:46.561Z,31.0
2019-04-22T13:02:47.293Z,30.8
2019-04-22T13:03:49.982Z,28.8
2019-04-22T13:04:50.443Z,28.8
2019-04-22T13:05:52.123Z,30.8
2019-04-22T13:06:55.472Z,29.8
2019-04-22T13:07:55.818Z,29.9
2019-04-22T13:08:57.396Z,31.1
2019-04-22T13:09:59.247Z,31.3
2019-04-22T13:11:06.822Z,32.1
2019-04-22T13:12:03.286Z,31.9
2019-04-22T13:13:05.000Z,32.4
2019-04-22T13:14:05.135Z,32.8
2019-04-22T13:15:07.859Z,33.0
2019-04-22T13:16:09.022Z,33.1
2019-04-22T13:17:10.490Z,33.0
2019-04-22T13:18:20.796Z,33.9
2019-04-22T13:19:15.260Z,33.8
2019-04-22T13:20:16.647Z,34.5
2019-04-22T13:21:16.542Z,33.8
2019-04-22T13:22:19.067Z,33.7
2019-04-22T13:23:25.578Z,34.4
2019-04-22T13:24:27.998Z,34.3
2019-04-22T13:25:29.953Z,34.5
2019-04-22T13:26:31.832Z,35.2
2019-04-22T13:27:33.156Z,35.2
2019-04-22T13:28:34.655Z,35.4
2019-04-22T13:29:35.147Z,35.0
2019-04-22T13:30:36.979Z,34.7
2019-04-22T13:31:38.577Z,34.8
2019-04-22T13:32:40.675Z,35.2
2019-04-22T13:33:43.054Z,34.4
2019-04-22T13:34:48.024Z,34.9
2019-04-22T13:35:45.706Z,35.0
2019-04-22T13:36:48.211Z,35.0
2019-04-22T13:37:48.768Z,36.0
2019-04-22T13:38:51.303Z,35.1
2019-04-22T13:39:52.718Z,35.6
2019-04-22T13:41:12.515Z,34.9
2019-04-22T13:41:59.951Z,35.3
2019-04-22T13:42:56.425Z,35.1
2019-04-22T13:43:58.091Z,35.4
2019-04-22T13:45:00.150Z,35.0
2019-04-22T13:46:01.807Z,33.6
2019-04-22T13:47:14.504Z,34.2
2019-04-22T13:48:26.719Z,34.5
2019-04-22T13:49:31.168Z,35.0
2019-04-22T13:50:47.682Z,35.1
2019-04-22T13:51:45.202Z,35.4
2019-04-22T13:52:46.337Z,35.2
2019-04-22T13:53:46.269Z,35.4
2019-04-22T13:55:57.910Z,34.6
2019-04-22T13:56:37.039Z,35.0
2019-04-22T13:57:38.168Z,35.1
2019-04-22T13:58:38.212Z,35.5
2019-04-22T13:59:30.265Z,35.3
2019-04-22T14:00:24.770Z,34.9
2019-04-22T14:01:25.340Z,33.9
2019-04-22T14:02:28.497Z,35.0
2019-04-22T14:03:29.020Z,35.5
2019-04-22T14:04:30.461Z,34.8
2019-04-22T14:05:32.930Z,35.1
2019-04-22T14:06:34.530Z,35.2
2019-04-22T14:07:35.095Z,34.3
2019-04-22T14:08:37.589Z,34.8
2019-04-22T14:09:39.787Z,33.7
2019-04-22T14:10:40.620Z,34.2
2019-04-22T14:11:49.327Z,34.2
2019-04-22T14:12:44.632Z,34.7
2019-04-22T14:13:45.977Z,34.7
2019-04-22T14:14:49.063Z,34.8
2019-04-22T14:15:48.688Z,34.9
2019-04-22T14:16:50.942Z,34.5
2019-04-22T14:17:52.635Z,33.6
2019-04-22T14:18:53.877Z,34.0
2019-04-22T14:19:55.082Z,35.0
2019-04-22T14:20:56.711Z,34.7
2019-04-22T14:21:59.701Z,34.7
2019-04-22T14:23:02.611Z,35.1
2019-04-22T14:24:02.592Z,35.4
2019-04-22T14:25:03.142Z,35.4
2019-04-22T14:26:05.235Z,35.6
2019-04-22T14:27:15.142Z,35.0
2019-04-22T14:28:11.850Z,35.1
2019-04-22T14:29:11.273Z,35.2
2019-04-22T14:30:12.559Z,33.8
2019-04-22T14:31:12.857Z,34.0
2019-04-22T14:32:19.329Z,33.7
2019-04-22T14:33:16.344Z,34.4
2019-04-22T14:34:18.847Z,34.0
2019-04-22T14:35:20.874Z,33.6
2019-04-22T14:36:21.511Z,32.8
2019-04-22T14:37:24.282Z,32.9
2019-04-22T14:38:25.924Z,32.7
2019-04-22T14:39:26.280Z,32.9
2019-04-22T14:40:28.734Z,32.8
2019-04-22T14:41:40.667Z,32.8
2019-04-22T14:42:52.306Z,32.5
2019-04-22T14:44:00.811Z,33.2
2019-04-22T14:47:05.724Z,32.8
2019-04-22T14:48:07.744Z,32.9
2019-04-22T14:49:06.423Z,33.2
2019-04-22T14:50:05.225Z,33.2
2019-04-22T14:51:05.926Z,32.9
2019-04-22T14:52:13.003Z,32.9
2019-04-22T14:53:10.067Z,33.1
2019-04-22T14:54:06.717Z,33.9
2019-04-22T14:55:02.932Z,33.0
2019-04-22T14:55:52.575Z,32.3
2019-04-22T14:56:54.148Z,31.3
2019-04-22T14:57:55.047Z,31.1
2019-04-22T14:58:56.579Z,31.2
2019-04-22T14:59:57.943Z,31.5
2019-04-22T15:01:01.109Z,31.5
2019-04-22T15:02:01.430Z,31.9
2019-04-22T15:03:03.685Z,31.1
2019-04-22T15:04:03.817Z,31.4
2019-04-22T15:05:06.029Z,31.2
2019-04-22T15:06:08.303Z,31.3
2019-04-22T15:07:08.863Z,32.0
2019-04-22T15:08:10.862Z,31.9
2019-04-22T15:09:12.106Z,32.6
2019-04-22T15:10:13.612Z,32.8
2019-04-22T15:11:14.883Z,32.6
2019-04-22T15:12:25.643Z,32.9
2019-04-22T15:13:17.663Z,32.7
2019-04-22T15:14:19.317Z,32.8
2019-04-22T15:15:19.719Z,32.6
2019-04-22T15:16:21.082Z,32.3
2019-04-22T15:17:22.891Z,32.3
2019-04-22T15:18:24.079Z,32.2